createdAt,value
2019-01-06T00:00:42.386Z,17.23
2019-01-06T00:03:47.903Z,17.27
2019-01-06T00:07:11.440Z,18.17
2019-01-06T00:10:25.257Z,17.82
2019-01-06T00:13:28.922Z,16.23
2019-01-06T00:16:42.457Z,18.30
2019-01-06T00:19:45.791Z,16.57
2019-01-06T00:22:42.556Z,17.00
2019-01-06T00:25:46.209Z,16.45
2019-01-06T00:28:57.101Z,17.17
2019-01-06T00:32:08.223Z,17.20
2019-01-06T00:35:16.150Z,15.03
2019-01-06T00:38:36.376Z,12.63
2019-01-06T00:41:56.290Z,12.58
2019-01-06T00:44:59.886Z,11.00
2019-01-06T00:48:10.044Z,11.97
2019-01-06T00:51:29.438Z,11.43
2019-01-06T00:54:33.088Z,10.35
2019-01-06T00:57:40.979Z,10.28
2019-01-06T01:00:47.532Z,10.23
2019-01-06T01:03:54.897Z,10.40
2019-01-06T01:07:04.707Z,10.25
2019-01-06T01:10:27.434Z,11.18
2019-01-06T01:13:28.728Z,10.43
2019-01-06T01:16:39.586Z,10.98
2019-01-06T01:19:42.513Z,9.95
2019-01-06T01:22:47.614Z,11.28
2019-01-06T01:25:45.892Z,11.80
2019-01-06T01:28:48.411Z,9.95
2019-01-06T01:32:01.032Z,10.40
2019-01-06T01:34:58.271Z,11.55
2019-01-06T01:38:09.365Z,10.58
2019-01-06T01:41:19.851Z,9.98
2019-01-06T01:44:23.708Z,10.45
2019-01-06T01:47:27.073Z,10.63
2019-01-06T01:50:34.122Z,10.35
2019-01-06T01:53:37.625Z,10.90
2019-01-06T01:56:51.776Z,9.98
2019-01-06T01:59:55.384Z,10.88
2019-01-06T02:02:59.131Z,11.43
2019-01-06T02:06:13.068Z,11.48
2019-01-06T02:09:16.642Z,10.70
2019-01-06T02:12:10.620Z,11.85
2019-01-06T02:15:14.263Z,12.07
2019-01-06T02:18:13.736Z,11.73
2019-01-06T02:21:17.821Z,11.73
2019-01-06T02:24:31.462Z,11.93
2019-01-06T02:27:42.399Z,11.08
2019-01-06T02:30:45.531Z,11.22
2019-01-06T02:33:48.931Z,11.22
2019-01-06T02:36:56.149Z,11.85
2019-01-06T02:40:10.977Z,12.80
2019-01-06T02:43:12.509Z,12.50
2019-01-06T02:46:12.929Z,12.25
2019-01-06T02:49:18.078Z,11.85
2019-01-06T02:52:25.848Z,11.73
2019-01-06T02:55:29.726Z,11.88
2019-01-06T02:58:35.230Z,11.90
2019-01-06T03:01:45.535Z,11.08
2019-01-06T03:05:05.531Z,11.85
2019-01-06T03:08:13.185Z,13.05
2019-01-06T03:11:21.787Z,12.03
2019-01-06T03:14:25.458Z,12.45
2019-01-06T03:17:25.415Z,11.48
2019-01-06T03:20:29.190Z,11.55
2019-01-06T03:23:42.882Z,12.07
2019-01-06T03:26:46.299Z,11.38
2019-01-06T03:30:02.993Z,12.07
2019-01-06T03:32:59.314Z,10.65
2019-01-06T03:36:04.111Z,12.00
2019-01-06T03:39:15.014Z,11.73
2019-01-06T03:42:31.756Z,11.55
2019-01-06T03:45:39.578Z,11.05
2019-01-06T03:48:42.948Z,11.88
2019-01-06T03:51:57.816Z,12.37
2019-01-06T03:55:01.224Z,11.60
2019-01-06T03:58:06.636Z,12.47
2019-01-06T04:01:03.614Z,11.68
2019-01-06T04:04:03.011Z,11.97
2019-01-06T04:07:11.338Z,12.37
2019-01-06T04:10:24.872Z,11.75
2019-01-06T04:13:35.818Z,11.40
2019-01-06T04:16:59.122Z,11.57
2019-01-06T04:20:04.771Z,10.45
2019-01-06T04:23:21.872Z,10.08
2019-01-06T04:26:25.936Z,10.78
2019-01-06T04:29:27.123Z,10.88
2019-01-06T04:32:46.732Z,11.35
2019-01-06T04:35:50.167Z,11.18
2019-01-06T04:39:06.062Z,10.93
2019-01-06T04:42:10.937Z,10.35
2019-01-06T04:45:11.799Z,12.13
2019-01-06T04:48:22.649Z,11.90
2019-01-06T04:51:35.977Z,12.40
2019-01-06T04:54:49.893Z,11.78
2019-01-06T04:58:00.857Z,12.93
2019-01-06T05:01:07.627Z,11.48
2019-01-06T05:04:09.219Z,11.93
2019-01-06T05:07:18.120Z,12.37
2019-01-06T05:10:21.834Z,12.28
2019-01-06T05:13:33.331Z,11.93
2019-01-06T05:16:41.264Z,11.73
2019-01-06T05:20:02.365Z,11.60
2019-01-06T05:23:06.496Z,11.20
2019-01-06T05:26:19.988Z,12.43
2019-01-06T05:29:24.395Z,11.65
2019-01-06T05:32:25.310Z,11.15
2019-01-06T05:35:28.720Z,12.37
2019-01-06T05:38:27.920Z,10.75
2019-01-06T05:41:24.394Z,11.57
2019-01-06T05:44:29.624Z,11.03
2019-01-06T05:47:34.545Z,9.78
2019-01-06T05:50:45.800Z,10.88
2019-01-06T05:53:50.896Z,11.48
2019-01-06T05:57:08.031Z,11.15
2019-01-06T06:00:11.575Z,10.30
2019-01-06T06:03:31.565Z,11.70
2019-01-06T06:06:34.871Z,10.25
2019-01-06T06:09:36.936Z,10.10
2019-01-06T06:12:51.097Z,9.70
2019-01-06T06:15:57.855Z,10.35
2019-01-06T06:19:03.180Z,10.78
2019-01-06T06:22:04.542Z,11.00
2019-01-06T06:25:08.026Z,10.55
2019-01-06T06:28:18.575Z,11.08
2019-01-06T06:31:22.127Z,10.80
2019-01-06T06:34:38.646Z,10.90
2019-01-06T06:37:52.444Z,11.90
2019-01-06T06:40:55.858Z,10.68
2019-01-06T06:44:16.123Z,11.60
2019-01-06T06:47:13.100Z,10.43
2019-01-06T06:50:15.013Z,10.68
2019-01-06T06:53:25.786Z,10.60
2019-01-06T06:56:26.996Z,10.85
2019-01-06T06:59:30.620Z,10.48
2019-01-06T07:03:13.067Z,11.30
2019-01-06T07:06:21.010Z,11.57
2019-01-06T07:09:19.814Z,12.73
2019-01-06T07:12:23.790Z,13.38
2019-01-06T07:15:37.920Z,13.45
2019-01-06T07:18:41.590Z,12.60
2019-01-06T07:21:45.152Z,13.45
2019-01-06T07:24:56.681Z,14.93
2019-01-06T07:27:54.231Z,14.78
2019-01-06T07:31:09.344Z,13.60
2019-01-06T07:34:19.380Z,14.43
2019-01-06T07:37:23.517Z,12.80
2019-01-06T07:40:27.197Z,13.93
2019-01-06T07:43:24.827Z,14.40
2019-01-06T07:46:41.743Z,14.15
2019-01-06T07:49:45.035Z,15.72
2019-01-06T07:53:01.075Z,12.73
2019-01-06T07:56:09.898Z,12.23
2019-01-06T07:59:20.864Z,12.25
2019-01-06T08:02:22.148Z,11.53
2019-01-06T08:05:32.922Z,12.25
2019-01-06T08:08:46.989Z,11.95
2019-01-06T08:11:54.823Z,10.90
2019-01-06T08:14:58.429Z,12.25
2019-01-06T08:18:06.092Z,13.32
2019-01-06T08:21:21.554Z,11.53
2019-01-06T08:24:25.158Z,8.70
2019-01-06T08:27:36.889Z,7.70
2019-01-06T08:30:40.750Z,7.28
2019-01-06T08:33:43.546Z,7.50
2019-01-06T08:36:47.553Z,6.72
2019-01-06T08:39:51.328Z,6.65
2019-01-06T08:43:04.999Z,7.65
2019-01-06T08:46:21.050Z,7.60
2019-01-06T08:49:28.897Z,7.00
2019-01-06T08:52:41.773Z,9.80
2019-01-06T08:55:46.627Z,8.95
2019-01-06T08:58:51.756Z,9.13
2019-01-06T09:02:15.249Z,9.75
2019-01-06T09:05:17.358Z,10.28
2019-01-06T09:08:21.042Z,10.20
2019-01-06T09:11:24.087Z,9.85
2019-01-06T09:14:28.474Z,10.20
2019-01-06T09:17:36.463Z,10.58
2019-01-06T09:20:51.043Z,9.85
2019-01-06T09:23:55.445Z,8.45
2019-01-06T09:27:12.816Z,7.53
2019-01-06T09:30:14.856Z,6.87
2019-01-06T09:33:18.767Z,7.53
2019-01-06T09:36:22.666Z,8.10
2019-01-06T09:39:41.239Z,9.50
2019-01-06T09:42:58.044Z,10.88
2019-01-06T09:45:52.289Z,10.30
2019-01-06T09:48:55.826Z,7.90
2019-01-06T09:52:00.013Z,7.90
2019-01-06T09:55:03.617Z,7.42
2019-01-06T09:58:12.590Z,7.03
2019-01-06T10:01:26.529Z,6.47
2019-01-06T10:04:34.821Z,6.12
2019-01-06T10:07:26.160Z,7.15
2019-01-06T10:10:21.676Z,6.17
2019-01-06T10:13:25.341Z,7.20
2019-01-06T10:16:28.887Z,5.75
2019-01-06T10:19:28.971Z,5.97
2019-01-06T10:22:49.767Z,5.12
2019-01-06T10:25:48.018Z,5.67
2019-01-06T10:28:56.000Z,5.20
2019-01-06T10:31:59.136Z,5.62
2019-01-06T10:35:10.515Z,5.83
2019-01-06T10:38:07.211Z,5.60
2019-01-06T10:41:15.512Z,5.70
2019-01-06T10:44:20.935Z,5.90
2019-01-06T10:47:23.933Z,5.62
2019-01-06T10:50:44.750Z,5.12
2019-01-06T10:53:50.502Z,5.05
2019-01-06T10:56:56.663Z,4.72
2019-01-06T11:00:04.892Z,5.45
2019-01-06T11:03:13.117Z,6.03
2019-01-06T11:06:16.458Z,5.10
2019-01-06T11:09:20.137Z,5.67
2019-01-06T11:12:41.995Z,5.65
2019-01-06T11:15:45.656Z,5.90
2019-01-06T11:18:47.903Z,5.65
2019-01-06T11:21:55.886Z,5.28
2019-01-06T11:24:59.789Z,6.85
2019-01-06T11:28:09.225Z,6.92
2019-01-06T11:31:13.169Z,6.45
2019-01-06T11:34:16.874Z,6.87
2019-01-06T11:37:22.898Z,7.10
2019-01-06T11:40:26.963Z,7.40
2019-01-06T11:43:46.953Z,6.10
2019-01-06T11:46:58.094Z,7.22
2019-01-06T11:50:09.095Z,7.15
2019-01-06T11:53:10.641Z,7.03
2019-01-06T11:56:18.646Z,6.78
2019-01-06T11:59:29.557Z,6.60
2019-01-06T12:02:39.047Z,6.55
2019-01-06T12:05:48.112Z,7.55
2019-01-06T12:08:48.969Z,7.35
2019-01-06T12:11:53.128Z,7.25
2019-01-06T12:14:58.475Z,7.70
2019-01-06T12:18:02.419Z,7.33
2019-01-06T12:21:00.649Z,7.22
2019-01-06T12:24:07.233Z,7.42
2019-01-06T12:27:12.608Z,7.67
2019-01-06T12:30:20.443Z,7.35
2019-01-06T12:33:40.820Z,7.65
2019-01-06T12:36:55.127Z,6.37
2019-01-06T12:39:58.753Z,7.05
2019-01-06T12:43:03.428Z,6.90
2019-01-06T12:46:13.660Z,6.28
2019-01-06T12:49:23.505Z,6.03
2019-01-06T12:52:37.119Z,5.50
2019-01-06T12:55:45.354Z,5.80
2019-01-06T12:58:48.928Z,5.50
2019-01-06T13:01:52.879Z,6.05
2019-01-06T13:05:01.023Z,6.10
2019-01-06T13:08:05.064Z,5.72
2019-01-06T13:11:13.505Z,6.42
2019-01-06T13:14:17.303Z,6.12
2019-01-06T13:17:31.599Z,6.28
2019-01-06T13:20:35.217Z,6.90
2019-01-06T13:23:32.072Z,6.78
2019-01-06T13:26:35.563Z,5.95
2019-01-06T13:29:31.888Z,6.58
2019-01-06T13:32:34.186Z,6.00
2019-01-06T13:35:38.153Z,5.72
2019-01-06T13:38:49.404Z,5.45
2019-01-06T13:41:56.712Z,5.45
2019-01-06T13:45:05.496Z,5.62
2019-01-06T13:48:08.959Z,5.97
2019-01-06T13:51:22.953Z,5.58
2019-01-06T13:54:33.606Z,6.72
2019-01-06T13:57:37.775Z,6.53
2019-01-06T14:00:37.859Z,7.20
2019-01-06T14:03:41.527Z,8.55
2019-01-06T14:07:04.722Z,8.48
2019-01-06T14:10:13.206Z,9.80
2019-01-06T14:13:15.255Z,9.93
2019-01-06T14:16:21.766Z,10.15
2019-01-06T14:19:32.719Z,9.68
2019-01-06T14:22:55.702Z,10.00
2019-01-06T14:26:15.638Z,9.95
2019-01-06T14:29:23.891Z,12.15
2019-01-06T14:32:24.255Z,10.25
2019-01-06T14:35:35.633Z,11.03
2019-01-06T14:38:46.723Z,11.10
2019-01-06T14:41:58.034Z,10.40
2019-01-06T14:45:03.291Z,9.83
2019-01-06T14:48:07.341Z,10.03
2019-01-06T14:51:10.755Z,10.10
2019-01-06T14:54:22.340Z,8.83
2019-01-06T14:57:25.596Z,9.85
2019-01-06T15:00:41.632Z,9.45
2019-01-06T15:03:51.312Z,9.33
2019-01-06T15:06:51.714Z,8.58
2019-01-06T15:10:07.943Z,8.60
2019-01-06T15:13:11.323Z,8.68
2019-01-06T15:16:16.044Z,8.43
2019-01-06T15:19:20.948Z,9.75
2019-01-06T15:22:24.571Z,9.38
2019-01-06T15:25:28.539Z,8.83
2019-01-06T15:28:32.195Z,8.45
2019-01-06T15:31:36.819Z,9.23
2019-01-06T15:34:49.335Z,9.13
2019-01-06T15:37:56.834Z,9.33
2019-01-06T15:41:04.835Z,8.15
2019-01-06T15:44:21.687Z,8.48
2019-01-06T15:47:24.865Z,8.13
2019-01-06T15:50:24.189Z,7.87
2019-01-06T15:53:29.031Z,8.43
2019-01-06T15:56:34.167Z,7.45
2019-01-06T15:59:48.157Z,6.97
2019-01-06T16:02:42.152Z,9.58
2019-01-06T16:05:56.342Z,7.53
2019-01-06T16:09:07.962Z,7.90
2019-01-06T16:12:11.230Z,7.58
2019-01-06T16:15:14.836Z,8.13
2019-01-06T16:18:22.560Z,7.62
2019-01-06T16:21:26.903Z,7.53
2019-01-06T16:24:28.586Z,7.22
2019-01-06T16:27:46.383Z,7.50
2019-01-06T16:30:54.267Z,7.00
2019-01-06T16:33:57.555Z,7.47
2019-01-06T16:37:02.391Z,7.05
2019-01-06T16:40:10.735Z,5.87
2019-01-06T16:43:14.001Z,5.22
2019-01-06T16:46:22.019Z,5.00
2019-01-06T16:49:29.729Z,5.33
2019-01-06T16:52:40.069Z,4.85
2019-01-06T16:55:51.200Z,4.60
2019-01-06T16:58:51.902Z,4.87
2019-01-06T17:01:55.744Z,4.92
2019-01-06T17:04:55.177Z,4.50
2019-01-06T17:08:00.184Z,4.35
2019-01-06T17:11:08.058Z,4.80
2019-01-06T17:14:11.675Z,4.00
2019-01-06T17:17:11.745Z,4.87
2019-01-06T17:20:09.548Z,5.12
2019-01-06T17:23:21.582Z,6.33
2019-01-06T17:26:42.187Z,5.70
2019-01-06T17:29:39.467Z,6.47
2019-01-06T17:32:48.339Z,6.95
2019-01-06T17:35:50.643Z,7.00
2019-01-06T17:38:54.151Z,7.22
2019-01-06T17:42:08.638Z,7.92
2019-01-06T17:45:12.086Z,7.60
2019-01-06T17:48:15.160Z,5.75
2019-01-06T17:51:26.550Z,6.37
2019-01-06T17:54:31.877Z,6.55
2019-01-06T17:57:45.469Z,6.28
2019-01-06T18:00:50.619Z,7.15
2019-01-06T18:03:58.775Z,5.70
2019-01-06T18:06:55.212Z,5.67
2019-01-06T18:09:58.621Z,6.25
2019-01-06T18:13:02.636Z,6.35
2019-01-06T18:16:23.097Z,5.15
2019-01-06T18:19:26.260Z,5.90
2019-01-06T18:22:36.177Z,5.17
2019-01-06T18:25:46.137Z,6.15
2019-01-06T18:28:49.742Z,5.67
2019-01-06T18:31:53.049Z,6.70
2019-01-06T18:35:01.354Z,5.90
2019-01-06T18:38:08.514Z,5.60
2019-01-06T18:41:13.486Z,5.70
2019-01-06T18:44:22.207Z,5.75
2019-01-06T18:47:25.897Z,6.78
2019-01-06T18:50:29.494Z,6.75
2019-01-06T18:53:33.027Z,6.22
2019-01-06T18:56:44.326Z,6.78
2019-01-06T18:59:45.151Z,5.53
2019-01-06T19:02:58.536Z,6.25
2019-01-06T19:05:59.019Z,6.22
2019-01-06T19:09:10.397Z,7.00
2019-01-06T19:12:13.859Z,7.60
2019-01-06T19:15:37.295Z,8.73
2019-01-06T19:18:34.217Z,8.25
2019-01-06T19:21:37.819Z,8.35
2019-01-06T19:24:42.983Z,9.03
2019-01-06T19:27:58.201Z,8.95
2019-01-06T19:31:01.969Z,9.53
2019-01-06T19:34:05.864Z,9.13
2019-01-06T19:37:06.199Z,10.00
2019-01-06T19:40:14.507Z,9.55
2019-01-06T19:43:37.983Z,8.63
2019-01-06T19:46:41.344Z,8.60
2019-01-06T19:50:05.331Z,8.80
2019-01-06T19:53:03.444Z,8.28
2019-01-06T19:56:07.575Z,8.93
2019-01-06T19:59:12.605Z,9.05
2019-01-06T20:02:18.778Z,8.50
2019-01-06T20:05:22.253Z,8.00
2019-01-06T20:08:32.422Z,8.68
2019-01-06T20:11:35.767Z,8.85
2019-01-06T20:14:35.227Z,8.28
2019-01-06T20:17:34.118Z,9.68
2019-01-06T20:20:41.710Z,8.85
2019-01-06T20:23:46.437Z,8.23
2019-01-06T20:26:59.911Z,9.58
2019-01-06T20:30:03.961Z,9.63
2019-01-06T20:33:03.137Z,8.53
2019-01-06T20:36:05.415Z,8.70
2019-01-06T20:39:09.536Z,8.18
2019-01-06T20:42:13.289Z,8.23
2019-01-06T20:45:28.973Z,6.78
2019-01-06T20:48:30.333Z,8.05
2019-01-06T20:51:27.419Z,7.37
2019-01-06T20:54:31.470Z,8.70
2019-01-06T20:57:35.024Z,8.15
2019-01-06T21:00:49.046Z,8.33
2019-01-06T21:03:52.704Z,8.28
2019-01-06T21:06:57.866Z,8.63
2019-01-06T21:10:01.898Z,8.98
2019-01-06T21:13:05.381Z,7.70
2019-01-06T21:16:18.610Z,8.00
2019-01-06T21:19:22.123Z,7.78
2019-01-06T21:22:39.356Z,7.75
2019-01-06T21:25:44.760Z,8.13
2019-01-06T21:28:43.961Z,7.87
2019-01-06T21:31:49.262Z,7.67
2019-01-06T21:34:52.465Z,7.33
2019-01-06T21:38:04.139Z,7.92
2019-01-06T21:41:18.928Z,8.60
2019-01-06T21:44:23.880Z,8.40
2019-01-06T21:47:28.984Z,7.10
2019-01-06T21:50:52.197Z,7.15
2019-01-06T21:54:10.063Z,7.37
2019-01-06T21:57:14.171Z,7.65
2019-01-06T22:00:18.066Z,7.00
2019-01-06T22:03:21.603Z,6.00
2019-01-06T22:06:27.163Z,6.35
2019-01-06T22:09:30.375Z,6.65
2019-01-06T22:12:32.448Z,6.35
2019-01-06T22:15:51.664Z,6.08
2019-01-06T22:18:52.630Z,5.80
2019-01-06T22:22:07.173Z,6.50
2019-01-06T22:25:04.925Z,5.35
2019-01-06T22:28:15.918Z,5.60
2019-01-06T22:31:25.285Z,5.62
2019-01-06T22:34:31.093Z,6.37
2019-01-06T22:37:33.727Z,5.90
2019-01-06T22:40:36.206Z,5.97
2019-01-06T22:43:40.941Z,6.55
2019-01-06T22:46:44.619Z,6.17
2019-01-06T22:49:41.673Z,5.67
2019-01-06T22:52:52.937Z,7.30
2019-01-06T22:56:09.875Z,6.30
2019-01-06T22:59:21.062Z,6.80
2019-01-06T23:02:31.835Z,5.90
2019-01-06T23:05:34.948Z,6.72
2019-01-06T23:08:39.158Z,6.80
2019-01-06T23:11:38.493Z,7.55
2019-01-06T23:14:43.520Z,8.28
2019-01-06T23:17:54.394Z,6.62
2019-01-06T23:21:07.630Z,9.13
2019-01-06T23:24:15.359Z,7.00
2019-01-06T23:27:14.701Z,5.75
2019-01-06T23:30:11.971Z,6.87
2019-01-06T23:33:18.867Z,5.22
2019-01-06T23:36:19.281Z,5.50
2019-01-06T23:39:25.331Z,5.20
2019-01-06T23:42:29.186Z,5.67
2019-01-06T23:45:51.751Z,5.65
2019-01-06T23:48:57.198Z,5.55
2019-01-06T23:52:01.065Z,6.05
2019-01-06T23:55:08.763Z,4.75
2019-01-06T23:58:12.390Z,4.40
